Time;durP1;ratioP1;P1;durP2;ratioP2;P2;SDS_P1;SDS_P2;PMS_P1;PMS_P2;Temp;Humidity;BMP_temperature;BMP_pressure;BME280_temperature;BME280_humidity;BME280_pressure;Samples;Min_cycle;Max_cycle;Signal;HPM_P1;HPM_P2
2022/08/21 00:00:07;;;;;;;6.17;4.00;;;19.00;99.90;;;;;;5065294;28;20960;-80
2022/08/21 00:02:34;;;;;;;6.73;4.50;;;19.00;99.90;;;;;;5051862;28;20492;-80
2022/08/21 00:05:01;;;;;;;7.43;5.23;;;19.00;99.90;;;;;;5052309;28;20453;-79
2022/08/21 00:07:28;;;;;;;10.47;5.43;;;19.00;99.90;;;;;;5051610;28;20487;-80
2022/08/21 00:09:55;;;;;;;13.20;5.90;;;19.00;99.90;;;;;;5065349;28;20486;-80
2022/08/21 00:12:23;;;;;;;8.90;5.23;;;19.00;99.90;;;;;;5072175;28;21171;-80
2022/08/21 00:14:51;;;;;;;7.73;6.40;;;19.00;99.90;;;;;;5070615;28;20453;-79
2022/08/21 00:17:18;;;;;;;11.37;7.27;;;19.00;99.90;;;;;;5057789;28;20885;-80
2022/08/21 00:19:44;;;;;;;9.13;6.40;;;19.00;99.90;;;;;;5052937;28;20455;-80
2022/08/21 00:22:11;;;;;;;11.83;6.57;;;19.00;99.90;;;;;;5051649;28;20484;-80
2022/08/21 00:24:38;;;;;;;10.37;7.40;;;18.90;99.90;;;;;;5051361;28;20460;-79
2022/08/21 00:27:05;;;;;;;10.43;7.80;;;18.90;99.90;;;;;;5051417;28;20460;-78
2022/08/21 00:29:33;;;;;;;11.97;6.93;;;18.90;99.90;;;;;;5058109;28;20499;-77
2022/08/21 00:32:00;;;;;;;12.43;7.50;;;18.80;99.90;;;;;;5070952;28;20439;-80
2022/08/21 00:34:27;;;;;;;11.60;8.20;;;18.80;99.90;;;;;;5053626;28;20485;-80
2022/08/21 00:36:54;;;;;;;13.77;7.20;;;18.80;99.90;;;;;;5039052;28;20896;-79
2022/08/21 00:39:21;;;;;;;9.60;6.83;;;18.70;99.90;;;;;;5039342;28;20558;-80
2022/08/21 00:41:51;;;;;;;8.53;6.10;;;18.70;99.90;;;;;;5055406;28;20578;-77
2022/08/21 00:44:17;;;;;;;9.10;6.83;;;18.60;99.90;;;;;;5053261;28;20906;-79
2022/08/21 00:46:46;;;;;;;10.60;6.40;;;18.60;99.90;;;;;;5054442;28;20542;-78
2022/08/21 00:49:14;;;;;;;9.73;6.37;;;18.50;99.90;;;;;;5050364;28;20566;-78
2022/08/21 00:51:46;;;;;;;8.60;5.77;;;18.50;99.90;;;;;;5034326;28;20490;-78
2022/08/21 00:54:14;;;;;;;8.80;5.80;;;18.40;99.90;;;;;;5033241;28;20538;-78
2022/08/21 00:56:42;;;;;;;8.93;6.47;;;18.40;99.90;;;;;;5034442;28;20456;-78
2022/08/21 00:59:08;;;;;;;8.53;5.97;;;18.40;99.90;;;;;;5052383;28;20569;-78
2022/08/21 01:01:35;;;;;;;11.13;6.40;;;18.40;99.90;;;;;;5053660;28;21081;-78
2022/08/21 01:04:04;;;;;;;10.40;6.53;;;18.40;99.90;;;;;;5054018;28;20542;-79
2022/08/21 01:06:31;;;;;;;10.57;7.20;;;18.40;99.90;;;;;;5038116;28;20455;-78
2022/08/21 01:08:58;;;;;;;10.10;6.37;;;18.40;99.90;;;;;;5035853;28;20581;-79
2022/08/21 01:11:25;;;;;;;9.10;6.50;;;18.40;99.90;;;;;;5042184;28;20459;-78
2022/08/21 01:13:53;;;;;;;9.30;6.10;;;18.40;99.90;;;;;;5041530;28;20478;-78
2022/08/21 01:16:22;;;;;;;8.90;6.13;;;18.40;99.90;;;;;;5049910;28;20536;-78
2022/08/21 01:18:50;;;;;;;7.83;5.80;;;18.50;99.90;;;;;;5058147;28;20495;-78
2022/08/21 01:21:20;;;;;;;12.00;6.23;;;18.40;99.90;;;;;;5047017;28;20465;-78
2022/08/21 01:23:50;;;;;;;10.87;6.00;;;18.50;99.90;;;;;;5054303;28;20482;-78
2022/08/21 01:26:20;;;;;;;7.47;6.03;;;18.50;99.90;;;;;;5047418;28;20489;-78
2022/08/21 01:28:52;;;;;;;10.60;6.63;;;18.50;99.90;;;;;;5038227;28;20565;-79
2022/08/21 01:31:23;;;;;;;9.13;6.10;;;18.50;99.90;;;;;;5039262;28;20462;-78
2022/08/21 01:33:50;;;;;;;10.43;5.80;;;18.50;99.90;;;;;;5037268;28;20454;-78
2022/08/21 01:36:18;;;;;;;10.00;5.70;;;18.40;99.90;;;;;;5045066;28;20548;-78
2022/08/21 01:38:46;;;;;;;8.67;5.73;;;18.40;99.90;;;;;;5057786;28;20994;-78
2022/08/21 01:41:12;;;;;;;10.83;6.17;;;18.40;99.90;;;;;;5055803;28;20455;-78
2022/08/21 01:43:40;;;;;;;10.63;6.20;;;18.40;99.90;;;;;;5057610;28;20488;-77
2022/08/21 01:46:07;;;;;;;8.63;5.73;;;18.40;99.90;;;;;;5066316;28;20459;-78
2022/08/21 01:48:34;;;;;;;8.57;5.80;;;18.40;99.90;;;;;;5057368;28;20582;-78
2022/08/21 01:51:01;;;;;;;8.60;5.77;;;18.30;99.90;;;;;;5055051;28;20448;-78
2022/08/21 01:53:29;;;;;;;8.10;5.70;;;18.30;99.90;;;;;;5056795;28;20537;-78
2022/08/21 01:55:57;;;;;;;9.27;5.10;;;18.30;99.90;;;;;;5043312;28;20459;-79
2022/08/21 01:58:23;;;;;;;9.70;5.50;;;18.20;99.90;;;;;;5039526;28;20927;-79
2022/08/21 02:00:50;;;;;;;7.83;4.90;;;18.20;99.90;;;;;;5017808;28;21318;-79
2022/08/21 02:03:17;;;;;;;9.60;5.33;;;18.10;99.90;;;;;;5017978;28;20591;-78
2022/08/21 02:05:44;;;;;;;10.33;6.10;;;18.10;99.90;;;;;;5056553;28;20535;-79
2022/08/21 02:08:11;;;;;;;6.20;4.40;;;18.10;99.90;;;;;;5057304;28;20565;-79
2022/08/21 02:10:40;;;;;;;6.57;4.77;;;18.00;99.90;;;;;;5038819;28;20526;-79
2022/08/21 02:13:08;;;;;;;6.40;4.47;;;18.00;99.90;;;;;;5036956;28;20459;-79
2022/08/21 02:15:36;;;;;;;7.97;4.23;;;18.00;99.90;;;;;;5053948;28;20915;-79
2022/08/21 02:18:06;;;;;;;7.17;4.30;;;17.90;99.90;;;;;;5057689;28;21011;-79
2022/08/21 02:20:35;;;;;;;5.30;3.73;;;17.90;99.90;;;;;;5038921;28;20458;-79
2022/08/21 02:23:02;;;;;;;6.13;3.60;;;17.80;99.90;;;;;;5036130;28;20489;-78
2022/08/21 02:25:30;;;;;;;6.80;4.27;;;17.80;99.90;;;;;;5053408;28;20494;-78
2022/08/21 02:28:00;;;;;;;6.60;4.23;;;17.70;99.90;;;;;;5057899;28;20548;-79
2022/08/21 02:30:29;;;;;;;9.40;4.37;;;17.70;99.90;;;;;;5054415;28;20545;-79
2022/08/21 02:32:57;;;;;;;6.80;4.30;;;17.70;99.90;;;;;;5056487;28;20450;-79
2022/08/21 02:35:24;;;;;;;8.43;4.50;;;17.60;99.90;;;;;;5041273;28;20452;-78
2022/08/21 02:37:54;;;;;;;5.63;3.73;;;17.60;99.90;;;;;;5036602;28;20660;-78
2022/08/21 02:40:24;;;;;;;5.37;4.17;;;17.60;99.90;;;;;;5052375;28;20520;-78
2022/08/21 02:42:51;;;;;;;8.30;4.27;;;17.50;99.90;;;;;;5056675;28;20579;-78
2022/08/21 02:45:20;;;;;;;7.93;4.00;;;17.50;99.90;;;;;;5048140;28;20521;-79
2022/08/21 02:47:51;;;;;;;5.60;3.60;;;17.50;99.90;;;;;;5057243;28;20921;-79
2022/08/21 02:50:21;;;;;;;4.63;3.57;;;17.50;99.90;;;;;;5042663;28;20942;-78
2022/08/21 02:52:49;;;;;;;6.00;3.57;;;17.50;99.90;;;;;;5036927;28;20447;-78
2022/08/21 02:55:16;;;;;;;5.83;4.53;;;17.50;99.90;;;;;;5057322;28;20453;-79
2022/08/21 02:57:43;;;;;;;4.37;3.67;;;17.40;99.90;;;;;;5054127;28;20552;-78
2022/08/21 03:00:11;;;;;;;6.73;4.10;;;17.40;99.90;;;;;;5038287;28;20553;-79
2022/08/21 03:02:40;;;;;;;6.70;4.40;;;17.40;99.90;;;;;;5048419;28;20537;-77
2022/08/21 03:05:09;;;;;;;5.70;3.70;;;17.40;99.90;;;;;;5037163;28;20455;-79
2022/08/21 03:07:36;;;;;;;8.43;5.00;;;17.40;99.90;;;;;;5038043;28;20477;-79
2022/08/21 03:10:03;;;;;;;12.37;3.97;;;17.30;99.90;;;;;;5061478;28;20458;-77
2022/08/21 03:12:30;;;;;;;7.83;4.47;;;17.30;99.90;;;;;;5050638;28;20972;-78
2022/08/21 03:14:57;;;;;;;5.33;4.13;;;17.30;99.90;;;;;;5036226;28;20543;-79
2022/08/21 03:17:24;;;;;;;7.63;4.50;;;17.30;99.90;;;;;;5037375;28;20469;-77
2022/08/21 03:19:52;;;;;;;5.70;3.93;;;17.30;99.90;;;;;;5053969;28;20961;-78
2022/08/21 03:22:19;;;;;;;6.53;4.60;;;17.30;99.90;;;;;;5047704;28;20589;-79
2022/08/21 03:24:46;;;;;;;8.87;3.77;;;17.30;99.90;;;;;;5035861;28;20571;-79
2022/08/21 03:27:13;;;;;;;7.83;4.57;;;17.20;99.90;;;;;;5043127;28;20542;-78
2022/08/21 03:29:40;;;;;;;6.07;3.80;;;17.20;99.90;;;;;;5040136;28;20548;-79
2022/08/21 03:32:09;;;;;;;8.00;4.50;;;17.20;99.90;;;;;;5041562;28;20459;-79
2022/08/21 03:34:35;;;;;;;6.43;4.50;;;17.20;99.90;;;;;;5044670;28;20980;-79
2022/08/21 03:37:05;;;;;;;12.50;4.03;;;17.20;99.90;;;;;;5040482;28;20539;-79
2022/08/21 03:39:32;;;;;;;7.63;4.67;;;17.10;99.90;;;;;;5040251;28;20491;-79
2022/08/21 03:41:59;;;;;;;11.30;5.43;;;17.10;99.90;;;;;;5038616;28;20467;-79
2022/08/21 03:44:28;;;;;;;6.97;4.77;;;17.10;99.90;;;;;;5055295;28;20524;-79
2022/08/21 03:46:55;;;;;;;7.50;4.70;;;17.10;99.90;;;;;;5054827;28;20587;-79
2022/08/21 03:49:22;;;;;;;6.70;4.50;;;17.10;99.90;;;;;;5048358;28;20475;-79
2022/08/21 03:51:49;;;;;;;8.83;4.30;;;17.10;99.90;;;;;;5035635;28;20480;-79
2022/08/21 03:54:17;;;;;;;6.10;4.30;;;17.10;99.90;;;;;;5055202;28;20877;-79
2022/08/21 03:56:44;;;;;;;6.00;4.20;;;17.10;99.90;;;;;;5054404;28;20546;-78
2022/08/21 03:59:11;;;;;;;5.60;3.70;;;17.00;99.90;;;;;;5053548;28;21020;-78
2022/08/21 04:01:38;;;;;;;9.87;4.87;;;17.00;99.90;;;;;;5054915;28;20535;-78
2022/08/21 04:04:06;;;;;;;7.43;4.60;;;17.00;99.90;;;;;;5037378;28;21152;-79
2022/08/21 04:06:34;;;;;;;6.73;4.20;;;17.00;99.90;;;;;;5036844;28;20544;-79
2022/08/21 04:09:01;;;;;;;8.43;4.40;;;17.00;99.90;;;;;;5050935;28;20475;-78
2022/08/21 04:11:29;;;;;;;6.00;4.70;;;16.90;99.90;;;;;;5047455;28;20465;-79
2022/08/21 04:13:56;;;;;;;6.67;4.50;;;17.00;99.90;;;;;;5038879;28;20452;-79
2022/08/21 04:16:23;;;;;;;8.17;5.17;;;16.90;99.90;;;;;;5044223;28;20460;-77
2022/08/21 04:18:50;;;;;;;7.37;4.70;;;16.90;99.90;;;;;;5036336;28;20564;-79
2022/08/21 04:21:17;;;;;;;6.60;5.00;;;16.90;99.90;;;;;;5050171;28;20531;-79
2022/08/21 04:23:44;;;;;;;6.90;5.20;;;16.90;99.90;;;;;;5035093;28;20481;-79
2022/08/21 04:26:11;;;;;;;6.07;4.67;;;16.90;99.90;;;;;;5036385;28;21343;-79
2022/08/21 04:28:39;;;;;;;5.63;4.97;;;16.90;99.90;;;;;;5035508;28;20463;-79
2022/08/21 04:31:06;;;;;;;6.23;4.40;;;16.90;99.90;;;;;;5050453;28;20530;-79
2022/08/21 04:33:33;;;;;;;9.80;4.83;;;16.80;99.90;;;;;;5054035;28;20971;-79
2022/08/21 04:36:00;;;;;;;8.10;4.50;;;16.80;99.90;;;;;;5044009;28;20458;-79
2022/08/21 04:38:27;;;;;;;7.17;5.30;;;16.80;99.90;;;;;;5055705;28;20570;-79
2022/08/21 04:40:54;;;;;;;8.90;4.83;;;16.80;99.90;;;;;;5042808;28;20460;-79
2022/08/21 04:43:23;;;;;;;4.77;4.27;;;16.70;99.90;;;;;;5032833;28;20496;-78
2022/08/21 04:45:52;;;;;;;6.83;5.20;;;16.70;99.90;;;;;;5046217;28;20464;-79
2022/08/21 04:48:21;;;;;;;6.20;4.50;;;16.70;99.90;;;;;;5054942;28;21006;-79
2022/08/21 04:50:53;;;;;;;7.07;4.60;;;16.70;99.90;;;;;;5055105;28;20548;-80
2022/08/21 04:53:23;;;;;;;6.93;4.67;;;16.70;99.90;;;;;;5039835;28;20453;-79
2022/08/21 04:55:52;;;;;;;7.17;4.60;;;16.70;99.90;;;;;;5045766;28;20549;-78
2022/08/21 04:58:23;;;;;;;6.47;4.87;;;16.70;99.90;;;;;;5019124;28;20478;-79
2022/08/21 05:00:54;;;;;;;5.90;4.70;;;16.70;99.90;;;;;;5044035;28;20556;-79
2022/08/21 05:03:21;;;;;;;7.70;5.23;;;16.70;99.90;;;;;;5035709;28;20582;-79
2022/08/21 05:05:48;;;;;;;9.13;5.00;;;16.70;99.90;;;;;;5055325;28;20452;-80
2022/08/21 05:08:19;;;;;;;5.60;4.83;;;16.80;99.90;;;;;;5056287;28;20905;-78
2022/08/21 05:10:46;;;;;;;6.67;4.43;;;16.80;99.90;;;;;;5042099;28;20443;-80
2022/08/21 05:13:14;;;;;;;6.67;5.23;;;16.80;99.90;;;;;;5054155;28;20542;-79
2022/08/21 05:15:41;;;;;;;6.37;5.20;;;16.90;99.90;;;;;;5036023;28;20546;-79
2022/08/21 05:18:10;;;;;;;6.47;4.63;;;16.90;99.90;;;;;;5035387;28;20512;-80
2022/08/21 05:20:37;;;;;;;8.77;5.20;;;17.00;99.90;;;;;;5044324;28;20464;-79
2022/08/21 05:23:08;;;;;;;7.83;4.90;;;17.10;99.90;;;;;;5034301;28;20492;-79
2022/08/21 05:25:36;;;;;;;4.97;4.47;;;17.10;99.90;;;;;;5050663;28;20455;-79
2022/08/21 05:28:03;;;;;;;7.40;4.70;;;17.10;99.90;;;;;;5054890;28;20567;-79
2022/08/21 05:30:30;;;;;;;8.30;4.97;;;17.20;99.90;;;;;;5046242;28;20530;-79
2022/08/21 05:32:58;;;;;;;9.33;5.47;;;17.20;99.90;;;;;;5054318;28;21023;-79
2022/08/21 05:35:28;;;;;;;6.63;5.00;;;17.30;99.90;;;;;;5040052;28;20525;-79
2022/08/21 05:40:24;;;;;;;5.93;5.10;;;17.40;99.90;;;;;;5075927;22;20503;-84
2022/08/21 05:42:51;;;;;;;7.87;5.83;;;17.40;99.90;;;;;;5038809;28;20486;-85
2022/08/21 05:45:19;;;;;;;7.47;6.10;;;17.40;99.90;;;;;;5050026;28;20897;-84
2022/08/21 05:47:46;;;;;;;11.27;6.80;;;17.40;99.90;;;;;;5058481;28;20918;-85
2022/08/21 05:50:13;;;;;;;11.87;8.00;;;17.50;99.90;;;;;;5047561;28;20541;-86
2022/08/21 05:52:41;;;;;;;10.33;7.70;;;17.50;99.90;;;;;;5035897;28;20476;-85
2022/08/21 05:55:08;;;;;;;7.63;6.80;;;17.50;99.90;;;;;;5044243;28;20487;-85
2022/08/21 05:57:35;;;;;;;10.77;7.00;;;17.60;99.90;;;;;;5048120;28;20490;-85
2022/08/21 06:00:02;;;;;;;10.90;6.70;;;17.60;99.90;;;;;;5047505;28;20485;-86
2022/08/21 06:02:30;;;;;;;11.10;6.20;;;17.70;99.90;;;;;;5036230;28;20456;-85
2022/08/21 06:04:57;;;;;;;10.27;7.00;;;17.80;99.90;;;;;;5056052;28;20532;-84
2022/08/21 06:07:24;;;;;;;17.80;7.67;;;17.90;99.90;;;;;;5057555;28;20533;-84
2022/08/21 06:09:52;;;;;;;8.33;6.67;;;17.80;99.90;;;;;;5048540;28;20566;-85
2022/08/21 06:12:19;;;;;;;7.47;5.63;;;17.90;99.90;;;;;;5036987;28;20493;-85
2022/08/21 06:14:46;;;;;;;11.23;7.60;;;18.00;99.90;;;;;;5054554;28;20453;-83
2022/08/21 06:17:14;;;;;;;8.60;5.80;;;17.80;99.90;;;;;;5040063;28;20460;-83
2022/08/21 06:19:43;;;;;;;9.00;7.03;;;17.80;99.90;;;;;;5034420;28;20554;-83
2022/08/21 06:22:10;;;;;;;10.50;6.73;;;17.90;99.90;;;;;;5037214;28;20545;-83
2022/08/21 06:24:37;;;;;;;10.47;7.30;;;18.00;99.90;;;;;;5033487;28;20482;-84
2022/08/21 06:27:07;;;;;;;11.30;7.40;;;18.00;99.90;;;;;;5042693;28;20519;-83
2022/08/21 06:29:44;;;;;;;7.13;6.23;;;18.00;99.90;;;;;;5035943;28;20482;-83
2022/08/21 06:32:15;;;;;;;10.63;6.57;;;18.20;99.90;;;;;;5032834;28;20520;-85
2022/08/21 06:34:45;;;;;;;11.57;7.33;;;18.30;99.90;;;;;;5050348;28;20465;-84
2022/08/21 06:37:12;;;;;;;10.53;7.20;;;18.40;99.90;;;;;;5049710;28;20640;-83
2022/08/21 06:39:39;;;;;;;13.07;9.00;;;18.20;99.90;;;;;;5047288;28;20607;-84
2022/08/21 06:42:17;;;;;;;13.60;8.10;;;18.30;99.90;;;;;;5041615;28;20456;-82
2022/08/21 06:44:48;;;;;;;13.63;8.03;;;18.40;99.90;;;;;;5041658;28;20501;-82
2022/08/21 06:47:18;;;;;;;11.70;7.70;;;18.50;99.90;;;;;;5044680;28;20456;-82
2022/08/21 06:49:44;;;;;;;11.33;7.50;;;18.50;99.90;;;;;;5043520;28;20479;-83
2022/08/21 06:52:17;;;;;;;10.50;7.20;;;18.60;99.90;;;;;;5041036;28;20498;-81
2022/08/21 06:54:44;;;;;;;11.90;7.70;;;18.70;99.90;;;;;;5041224;28;20450;-82
2022/08/21 06:57:15;;;;;;;10.60;7.30;;;18.80;99.90;;;;;;5043410;28;20458;-84
2022/08/21 06:59:45;;;;;;;11.40;6.50;;;18.90;99.90;;;;;;5045986;28;20478;-83
2022/08/21 07:02:12;;;;;;;10.40;6.93;;;19.00;99.90;;;;;;5042583;28;20498;-82
2022/08/21 07:04:39;;;;;;;12.20;7.57;;;19.00;99.90;;;;;;5037817;28;20508;-82
2022/08/21 07:07:08;;;;;;;13.20;8.00;;;19.10;99.90;;;;;;5041124;28;20494;-82
2022/08/21 07:09:34;;;;;;;12.57;7.23;;;19.00;99.90;;;;;;5061095;28;20476;-84
2022/08/21 07:12:02;;;;;;;16.90;8.40;;;19.10;99.90;;;;;;5053377;28;20512;-82
2022/08/21 07:14:31;;;;;;;7.37;6.50;;;19.10;99.90;;;;;;5050150;28;20455;-81
2022/08/21 07:16:58;;;;;;;11.57;7.70;;;19.10;99.90;;;;;;5043636;28;20462;-82
2022/08/21 07:19:25;;;;;;;11.07;6.80;;;19.20;99.90;;;;;;5061292;28;21025;-84
2022/08/21 07:21:53;;;;;;;14.23;7.90;;;19.20;99.90;;;;;;5060415;28;20476;-82
2022/08/21 07:24:20;;;;;;;15.33;6.93;;;19.30;99.90;;;;;;5046628;28;20487;-83
2022/08/21 07:26:47;;;;;;;13.67;7.43;;;19.40;99.90;;;;;;5045147;28;20872;-83
2022/08/21 07:29:14;;;;;;;9.43;6.50;;;19.40;99.90;;;;;;5046694;28;20474;-82
2022/08/21 07:31:43;;;;;;;9.23;6.23;;;19.50;99.90;;;;;;5043662;28;20484;-83
2022/08/21 07:34:10;;;;;;;6.70;5.07;;;19.50;99.90;;;;;;5058296;28;20458;-84
2022/08/21 07:36:37;;;;;;;15.33;5.43;;;19.60;99.90;;;;;;5063336;28;20445;-82
2022/08/21 07:39:04;;;;;;;9.87;4.60;;;19.60;99.90;;;;;;5061186;28;20543;-83
2022/08/21 07:41:31;;;;;;;8.83;3.80;;;19.70;99.90;;;;;;5055273;28;20460;-84
2022/08/21 07:44:00;;;;;;;7.27;3.77;;;19.70;99.90;;;;;;5045490;28;20484;-84
2022/08/21 07:46:27;;;;;;;8.90;4.03;;;19.80;99.90;;;;;;5040256;28;20456;-82
2022/08/21 07:48:56;;;;;;;11.20;4.27;;;19.90;99.90;;;;;;5041029;28;20479;-83
2022/08/21 07:51:27;;;;;;;6.53;3.57;;;19.80;99.90;;;;;;5047161;28;20460;-85
2022/08/21 07:53:56;;;;;;;7.30;3.30;;;19.90;99.90;;;;;;5036893;28;20974;-87
2022/08/21 07:56:23;;;;;;;6.53;3.60;;;20.00;99.90;;;;;;5042084;28;20450;-88
2022/08/21 07:58:50;;;;;;;7.97;3.07;;;19.90;99.90;;;;;;5054378;28;20566;-86
2022/08/21 08:01:19;;;;;;;9.83;3.53;;;20.00;99.90;;;;;;5042407;28;20548;-88
2022/08/21 08:03:49;;;;;;;9.27;3.13;;;20.20;99.90;;;;;;5044484;28;20451;-87
2022/08/21 08:06:18;;;;;;;8.73;3.20;;;20.20;99.90;;;;;;5039817;28;20455;-87
2022/08/21 08:08:45;;;;;;;6.00;3.10;;;20.40;99.90;;;;;;5040551;28;20467;-87
2022/08/21 08:11:15;;;;;;;7.07;3.27;;;20.40;99.90;;;;;;5039875;28;20509;-87
2022/08/21 08:13:43;;;;;;;9.47;2.67;;;20.40;99.90;;;;;;5038934;28;20468;-88
2022/08/21 08:16:11;;;;;;;7.57;3.37;;;20.50;99.90;;;;;;5039038;28;20521;-88
2022/08/21 08:18:38;;;;;;;8.83;3.30;;;20.40;99.90;;;;;;5037573;28;20567;-88
2022/08/21 08:21:05;;;;;;;5.03;2.30;;;20.40;99.90;;;;;;5040129;28;20502;-87
2022/08/21 08:23:34;;;;;;;10.33;3.40;;;20.60;99.90;;;;;;5036689;28;20487;-88
2022/08/21 08:26:02;;;;;;;3.80;2.43;;;20.60;99.90;;;;;;5043006;28;20480;-86
2022/08/21 08:28:30;;;;;;;7.37;2.80;;;20.50;99.90;;;;;;5040229;28;20480;-87
2022/08/21 08:30:57;;;;;;;5.40;2.23;;;20.60;99.90;;;;;;5041390;28;20518;-88
2022/08/21 08:33:24;;;;;;;7.87;3.20;;;20.60;99.90;;;;;;5039820;28;20460;-88
2022/08/21 08:35:52;;;;;;;5.00;1.97;;;20.70;99.90;;;;;;5040112;28;20464;-89
2022/08/21 08:38:22;;;;;;;6.43;2.17;;;21.00;99.90;;;;;;5019138;28;20457;-88
2022/08/21 08:40:59;;;;;;;7.60;2.30;;;21.20;99.90;;;;;;5032032;28;20544;-88
2022/08/21 08:43:28;;;;;;;6.27;2.37;;;21.40;99.90;;;;;;5039313;28;20436;-89
2022/08/21 08:45:58;;;;;;;7.50;3.20;;;21.60;99.90;;;;;;5036085;28;20512;-88
2022/08/21 08:48:42;;;;;;;9.13;2.60;;;21.60;99.90;;;;;;5041976;28;20596;-89
2022/08/21 08:51:17;;;;;;;5.30;2.77;;;21.90;99.90;;;;;;5055496;28;20478;-89
2022/08/21 08:53:51;;;;;;;9.63;2.87;;;22.00;99.90;;;;;;5035561;28;20452;-88
2022/08/21 08:56:32;;;;;;;6.03;3.00;;;22.20;99.90;;;;;;5049382;28;20451;-88
2022/08/21 08:59:17;;;;;;;10.10;2.60;;;22.20;99.90;;;;;;5027728;28;20476;-88
2022/08/21 09:02:10;;;;;;;6.83;3.07;;;22.40;99.90;;;;;;5044565;28;20531;-89
2022/08/21 09:04:37;;;;;;;5.90;2.60;;;22.40;99.90;;;;;;5051951;28;20907;-88
2022/08/21 09:07:15;;;;;;;6.30;2.63;;;22.40;99.90;;;;;;5042911;28;20445;-90
2022/08/21 09:09:55;;;;;;;5.00;2.50;;;22.40;99.90;;;;;;5038861;28;20467;-90
2022/08/21 09:12:35;;;;;;;8.30;3.27;;;22.50;99.90;;;;;;5033354;28;20476;-89
2022/08/21 09:15:14;;;;;;;7.77;2.90;;;22.60;99.90;;;;;;5032180;28;20544;-88
2022/08/21 09:18:09;;;;;;;8.60;3.53;;;22.90;99.90;;;;;;5034915;28;20475;-90
2022/08/21 09:20:48;;;;;;;8.00;2.87;;;23.00;99.90;;;;;;5024869;28;20552;-90
2022/08/21 09:23:26;;;;;;;5.83;2.23;;;23.40;99.90;;;;;;5043170;28;20444;-90
2022/08/21 09:26:07;;;;;;;6.93;2.20;;;23.60;99.90;;;;;;5037707;28;20487;-89
2022/08/21 09:28:37;;;;;;;7.20;2.30;;;23.70;99.90;;;;;;5033699;28;20480;-89
2022/08/21 09:31:07;;;;;;;9.50;2.93;;;23.60;99.90;;;;;;5026073;28;20468;-89
2022/08/21 09:33:41;;;;;;;7.50;2.63;;;23.70;99.90;;;;;;5022510;28;20552;-89
2022/08/21 09:36:08;;;;;;;7.20;3.13;;;24.00;99.90;;;;;;5027848;28;20546;-90
2022/08/21 09:38:39;;;;;;;7.90;2.00;;;24.00;99.90;;;;;;5036014;28;20480;-89
2022/08/21 09:41:09;;;;;;;5.07;1.83;;;24.00;99.90;;;;;;5035109;28;20539;-90
2022/08/21 09:43:39;;;;;;;8.33;2.30;;;23.90;99.90;;;;;;5035174;28;21133;-90
2022/08/21 09:46:10;;;;;;;9.03;2.83;;;23.90;99.90;;;;;;5032129;28;20544;-89
2022/08/21 09:48:43;;;;;;;6.37;2.30;;;24.10;99.90;;;;;;5036246;28;20542;-90
2022/08/21 09:51:12;;;;;;;4.00;1.70;;;24.40;99.90;;;;;;5054529;28;20590;-87
2022/08/21 09:53:45;;;;;;;7.10;2.67;;;24.50;99.90;;;;;;5056327;28;20531;-89
2022/08/21 09:59:19;;;;;;;5.00;2.00;;;24.80;99.90;;;;;;5023749;28;20459;-88
2022/08/21 10:01:50;;;;;;;5.70;1.70;;;25.20;99.90;;;;;;5036477;28;20539;-89
2022/08/21 10:04:22;;;;;;;3.43;1.50;;;25.50;99.90;;;;;;5036014;28;20548;-88
2022/08/21 10:06:49;;;;;;;5.43;2.27;;;25.70;99.90;;;;;;5035395;28;20459;-88
2022/08/21 10:09:17;;;;;;;4.50;2.00;;;25.90;99.90;;;;;;5035590;28;20499;-88
2022/08/21 10:11:53;;;;;;;9.10;1.93;;;25.80;99.90;;;;;;5036214;28;20461;-88
2022/08/21 10:14:35;;;;;;;6.37;1.53;;;26.00;99.90;;;;;;5044410;28;20544;-90
2022/08/21 10:17:08;;;;;;;7.27;2.10;;;26.30;99.90;;;;;;5036483;28;20527;-89
2022/08/21 10:19:41;;;;;;;4.10;1.73;;;26.40;99.90;;;;;;5036498;28;20472;-88
2022/08/21 10:22:19;;;;;;;6.97;2.07;;;26.10;99.90;;;;;;5036478;28;20480;-86
2022/08/21 10:24:53;;;;;;;6.97;2.87;;;26.20;99.90;;;;;;5036044;28;20563;-87
2022/08/21 10:27:30;;;;;;;5.07;1.80;;;26.10;99.90;;;;;;5049900;28;20479;-88
2022/08/21 10:30:04;;;;;;;4.37;1.90;;;26.40;99.90;;;;;;5042601;28;20468;-87
2022/08/21 10:32:54;;;;;;;4.67;1.60;;;26.50;99.90;;;;;;5035181;28;20622;-88
2022/08/21 10:35:25;;;;;;;5.03;1.40;;;26.60;99.90;;;;;;5035923;28;20445;-88
2022/08/21 10:38:09;;;;;;;6.03;1.77;;;26.90;99.90;;;;;;5035602;28;20905;-88
2022/08/21 10:40:43;;;;;;;4.30;2.07;;;27.10;99.90;;;;;;5042908;28;20535;-87
2022/08/21 10:43:20;;;;;;;3.93;1.93;;;27.20;99.90;;;;;;5044982;28;20845;-87
2022/08/21 10:45:58;;;;;;;5.30;2.00;;;27.20;99.90;;;;;;5035808;28;20583;-87
2022/08/21 10:48:30;;;;;;;6.23;1.90;;;26.80;99.90;;;;;;5035157;28;20520;-87
2022/08/21 10:51:07;;;;;;;2.90;1.20;;;26.70;99.90;;;;;;5045695;28;20473;-88
2022/08/21 10:53:52;;;;;;;4.70;1.60;;;26.90;99.90;;;;;;5039079;28;20540;-88
2022/08/21 10:56:22;;;;;;;3.43;1.50;;;27.00;99.90;;;;;;5035288;28;20453;-88
2022/08/21 10:59:00;;;;;;;4.40;1.50;;;27.50;99.90;;;;;;5036547;28;20482;-88
2022/08/21 11:01:33;;;;;;;5.13;1.60;;;27.50;99.90;;;;;;5037730;28;20459;-85
2022/08/21 11:04:11;;;;;;;3.90;1.20;;;27.70;99.90;;;;;;5031248;28;20486;-86
2022/08/21 11:06:44;;;;;;;5.73;1.80;;;28.00;99.90;;;;;;5038103;28;20561;-86
2022/08/21 11:09:14;;;;;;;4.10;1.63;;;28.20;99.90;;;;;;5029782;28;20491;-87
2022/08/21 11:11:47;;;;;;;5.40;1.50;;;28.00;99.90;;;;;;5027686;28;20475;-86
2022/08/21 11:14:25;;;;;;;3.10;1.43;;;28.10;99.90;;;;;;5034475;28;20551;-86
2022/08/21 11:17:01;;;;;;;3.93;1.37;;;28.30;99.90;;;;;;5038624;28;20451;-86
2022/08/21 11:19:31;;;;;;;2.90;1.43;;;28.10;99.90;;;;;;5042724;28;20843;-88
2022/08/21 11:22:05;;;;;;;2.83;1.20;;;28.20;99.90;;;;;;5032717;28;20555;-87
2022/08/21 11:24:40;;;;;;;4.37;1.40;;;28.40;99.90;;;;;;5046375;28;20453;-88
2022/08/21 11:27:14;;;;;;;4.83;2.00;;;28.40;99.90;;;;;;5049990;28;20487;-88
2022/08/21 11:29:45;;;;;;;3.30;1.53;;;27.90;99.90;;;;;;5049331;28;20890;-86
2022/08/21 11:32:31;;;;;;;5.80;1.57;;;28.00;99.90;;;;;;5035706;28;20808;-86
2022/08/21 11:35:20;;;;;;;5.00;1.30;;;28.10;99.90;;;;;;5030193;28;20453;-86
2022/08/21 11:38:12;;;;;;;4.47;1.60;;;28.40;99.90;;;;;;5034736;28;20498;-86
2022/08/21 11:40:55;;;;;;;2.80;1.10;;;28.40;99.90;;;;;;5042310;28;20445;-87
2022/08/21 11:43:30;;;;;;;3.10;1.20;;;28.10;99.90;;;;;;5049631;28;20543;-87
2022/08/21 11:46:09;;;;;;;2.80;1.10;;;28.10;99.90;;;;;;5039855;28;20574;-86
2022/08/21 11:48:49;;;;;;;3.60;1.57;;;27.90;99.90;;;;;;5043571;28;20507;-85
2022/08/21 11:51:21;;;;;;;3.23;1.30;;;28.20;99.90;;;;;;5053381;28;20531;-86
2022/08/21 11:53:55;;;;;;;4.10;1.70;;;27.90;99.90;;;;;;5039704;28;20464;-86
2022/08/21 11:56:26;;;;;;;3.80;1.20;;;28.00;99.90;;;;;;5056081;28;20448;-86
2022/08/21 11:58:57;;;;;;;4.33;1.10;;;28.10;99.90;;;;;;5043001;28;20511;-86
2022/08/21 12:01:33;;;;;;;3.07;1.23;;;28.30;99.90;;;;;;5038021;28;20445;-87
2022/08/21 12:04:07;;;;;;;4.67;1.20;;;28.40;99.90;;;;;;5034703;28;20448;-87
2022/08/21 12:06:38;;;;;;;4.73;1.33;;;28.60;99.90;;;;;;5030508;28;20525;-85
2022/08/21 12:09:07;;;;;;;3.13;1.10;;;28.30;99.90;;;;;;5043491;28;20506;-86
2022/08/21 12:11:48;;;;;;;3.33;1.13;;;28.20;99.90;;;;;;5035982;28;20461;-85
2022/08/21 12:14:17;;;;;;;3.30;1.13;;;27.90;99.90;;;;;;5034409;28;20490;-87
2022/08/21 12:16:46;;;;;;;3.67;1.20;;;27.50;99.90;;;;;;5036492;28;20488;-87
2022/08/21 12:19:30;;;;;;;2.97;1.33;;;27.30;99.90;;;;;;5045470;28;20584;-87
2022/08/21 12:22:08;;;;;;;6.10;1.37;;;27.80;99.90;;;;;;5027951;28;20540;-88
2022/08/21 12:24:38;;;;;;;4.77;1.40;;;28.40;99.90;;;;;;5036477;28;20444;-87
2022/08/21 12:27:28;;;;;;;5.07;1.37;;;28.80;99.90;;;;;;5057903;28;20522;-87
2022/08/21 12:29:59;;;;;;;6.00;1.77;;;29.50;99.90;;;;;;5018210;28;20549;-86
2022/08/21 12:32:33;;;;;;;3.80;1.20;;;29.90;99.90;;;;;;5027437;28;20450;-86
2022/08/21 12:35:20;;;;;;;4.90;1.70;;;29.70;99.90;;;;;;5029841;28;21036;-87
2022/08/21 12:37:50;;;;;;;4.10;1.27;;;29.80;99.90;;;;;;5014587;28;20446;-87
2022/08/21 12:40:23;;;;;;;9.20;1.50;;;29.80;99.90;;;;;;5028792;28;20491;-87
2022/08/21 12:42:53;;;;;;;4.30;1.80;;;30.10;99.90;;;;;;5035394;28;20451;-86
2022/08/21 12:45:22;;;;;;;3.90;1.67;;;30.20;99.90;;;;;;5044963;28;20575;-86
2022/08/21 12:47:59;;;;;;;4.60;1.33;;;30.10;99.90;;;;;;5039803;28;20480;-86
2022/08/21 12:50:35;;;;;;;3.40;1.20;;;30.20;99.90;;;;;;5034162;28;20472;-87
2022/08/21 12:53:08;;;;;;;3.70;1.40;;;30.50;99.90;;;;;;5033267;28;20544;-87
2022/08/21 12:55:42;;;;;;;2.10;1.00;;;30.70;99.90;;;;;;5036825;28;20475;-85
2022/08/21 12:58:18;;;;;;;4.20;1.40;;;30.90;99.90;;;;;;5038540;28;20527;-84
2022/08/21 13:00:50;;;;;;;5.03;1.80;;;31.10;99.90;;;;;;5040970;28;21000;-85
2022/08/21 13:03:17;;;;;;;2.43;1.07;;;31.00;99.90;;;;;;5039671;28;20476;-85
2022/08/21 13:05:46;;;;;;;3.93;1.20;;;30.60;99.90;;;;;;5041943;28;20500;-85